Flight Track Log - Related Links

Times and Time Zones

All times are in EDT time to prevent confusion due to time zone crossing. See the CNS22 flight status page for this flight to view local times or setup timezone preferences in your user account.

Time Position Orientation Groundspeed Altitude Reporting Facility
EDT Latitude Longitude Course Direction KTS MPH feet Rate Location/Type
Mon 11:05:18 AM 29.9692 -81.3558 North 139 160 800  Level Jacksonville Center
Mon 11:06:38 AM 30.0169 -81.3478 North 170 196 2,500 1,469 Climbing Jacksonville Center
Mon 11:07:45 AM 30.0669 -81.3206 25° Northeast 169 194 4,400 1,672 Climbing Jacksonville Center
Mon 11:08:40 AM 30.0767 -81.2653 78° East 202 232 5,900 1,603 Climbing Jacksonville Center
Mon 11:09:41 AM 30.0819 -81.2028 84° East 198 228 7,500 1,402 Climbing Jacksonville Center
Mon 11:10:27 AM 30.0647 -81.1622 116° Southeast 207 238 8,400 1,346 Climbing Jacksonville Center
Mon 11:11:28 AM 30.0225 -81.1294 146° Southeast 193 222 9,900 1,350 Climbing Jacksonville Center
Mon 11:12:27 AM 29.9661 -81.1256 177° South 179 206 11,100 1,261 Climbing Jacksonville Center
Mon 11:13:27 AM 29.9097 -81.1267 181° South 193 222 12,400 1,339 Climbing Jacksonville Center
Mon 11:14:28 AM 29.8553 -81.1156 170° South 199 229 13,800 1,350 Climbing Jacksonville Center
Mon 11:15:27 AM 29.8008 -81.0975 164° South 204 235 15,100 1,160 Climbing Jacksonville Center
Mon 11:16:27 AM 29.7461 -81.0744 160° South 204 235 16,100 1,041 Climbing Jacksonville Center
Mon 11:17:28 AM 29.6939 -81.0539 161° South 204 235 17,200 950 Climbing Jacksonville Center
Mon 11:18:27 AM 29.6372 -81.0361 165° South 209 241 18,000 403 Climbing Jacksonville Center
Mon 11:19:27 AM 29.5764 -81.0133 162° South 216 249 18,000  Level Jacksonville Center
Mon 11:20:28 AM 29.5111 -80.9883 162° South 231 266 18,000  Level Jacksonville Center
Mon 11:21:27 AM 29.4461 -80.9586 158° South 249 287 18,000  Level Jacksonville Center
Mon 11:22:27 AM 29.3767 -80.9336 163° South 254 292 18,000  Level Jacksonville Center
Mon 11:23:27 AM 29.3075 -80.9042 160° South 254 292 18,000  Level Jacksonville Center
Mon 11:24:27 AM 29.2381 -80.8794 163° South 259 298 18,000  Level Jacksonville Center
Mon 11:24:58 AM 29.1939 -80.8664 166° South 262 302 18,000  Level Miami Center
Mon 11:25:58 AM 29.1236 -80.8403 162° South 267 307 18,000  Level Miami Center
Mon 11:26:58 AM 29.0536 -80.8117 160° South 262 302 18,000  Level Miami Center
Mon 11:27:58 AM 28.9856 -80.7878 163° South 262 302 18,000  Level Miami Center
Mon 11:28:57 AM 28.9172 -80.7617 162° South 262 302 18,000  Level Miami Center
Mon 11:29:58 AM 28.8492 -80.7356 161° South 262 302 18,000  Level Miami Center
Mon 11:30:58 AM 28.7811 -80.7094 161° South 262 302 18,000  Level Miami Center
Mon 11:31:58 AM 28.7150 -80.6811 159° South 262 302 18,000  Level Miami Center
Mon 11:32:58 AM 28.6472 -80.6481 157° South 262 302 18,000 -50 Level Miami Center
Mon 11:33:58 AM 28.5769 -80.6219 162° South 267 307 17,900 -202 Descending Miami Center
Mon 11:34:57 AM 28.5044 -80.5936 161° South 267 307 17,600 -366 Descending Miami Center
Mon 11:36:09 AM 28.4303 -80.5653 161° South 272 313 17,100 -496 Descending Miami Center
Mon 11:37:10 AM 28.3436 -80.5294 160° South 277 319 16,500 -397 Descending Miami Center
Mon 11:38:10 AM 28.2650 -80.5008 162° South 288 331 16,300 -450 Descending Miami Center
Mon 11:39:10 AM 28.1906 -80.4703 160° South 288 331 15,600 -650 Descending Miami Center
Mon 11:40:10 AM 28.1264 -80.4469 162° South 283 326 15,000 -650 Descending Miami Center
Mon 11:41:10 AM 28.0519 -80.4211 163° South 283 326 14,300 -800 Descending Miami Center
Mon 11:42:10 AM 27.9817 -80.3906 159° South 283 326 13,400 -800 Descending Miami Center
Mon 11:43:10 AM 27.9156 -80.3675 163° South 266 306 12,700 -800 Descending Miami Center
Mon 11:44:10 AM 27.8431 -80.3369 160° South 261 300 11,800 -800 Descending Miami Center
Mon 11:45:10 AM 27.7750 -80.3114 162° South 256 295 11,100 -750 Descending Miami Center
Mon 11:46:10 AM 27.7047 -80.2836 161° South 266 306 10,300 -750 Descending Miami Center
Mon 11:47:10 AM 27.6425 -80.2583 160° South 266 306 9,600 -750 Descending Miami Center
Mon 11:48:10 AM 27.5700 -80.2328 163° South 266 306 8,800 -850 Descending Miami Center
Mon 11:49:10 AM 27.4956 -80.2025 160° South 266 306 7,900 -750 Descending Miami Center
Mon 11:50:10 AM 27.4253 -80.1769 162° South 266 306 7,300 -450 Descending Miami Center
Mon 11:51:10 AM 27.3567 -80.1633 170° South 261 300 7,000 -400 Descending Miami Center
Mon 11:52:10 AM 27.2944 -80.1453 166° South 254 292 6,500 -350 Descending Miami Center
Mon 11:53:10 AM 27.2258 -80.1314 170° South 259 298 6,300 -200 Descending Miami Center
Mon 11:54:10 AM 27.1489 -80.1106 166° South 259 298 6,100 -300 Descending Miami Center
Mon 11:55:10 AM 27.0783 -80.0969 170° South 259 298 5,700 -450 Descending Miami Center
Mon 11:56:10 AM 27.0078 -80.0789 167° South 259 298 5,200 -350 Descending Miami Center
Mon 11:57:10 AM 26.9494 -80.0656 168° South 254 292 5,000 -100 Descending Miami Center
Mon 11:58:10 AM 26.8831 -80.0497 168° South 247 284 5,000  Level Miami Center
Mon 12:00:00 PM 26.7666 -80.0750 186° South  Level FlightAware Approximate
Mon 12:07:00 PM 26.3785 -80.1077 180° South  Level Estimated
Mon 12:08:00 PM 26.3785 -80.1077 180° South  Level Estimated
Mon 12:09:00 PM 26.3785 -80.1077 180° South  Level Estimated
Mon 12:10:00 PM 26.3785 -80.1077 180° South  Level Estimated
Mon 12:11:00 PM 26.3785 -80.1077 180° South  Level Estimated
Mon 12:12:00 PM 26.3785 -80.1077 180° South  Level Estimated
Mon 12:13:00 PM 26.3785 -80.1077 180° South  Level Estimated
Mon 12:14:00 PM 26.3785 -80.1077 180° South  Level Estimated
Mon 12:15:00 PM 26.3785 -80.1077 180° South  Level Estimated
Mon 12:16:00 PM 26.3785 -80.1077 180° South  Level Estimated

Login

Don't have an account? Register now (free) for customized features, flight alerts, and more!